createdAt,value
2022-08-17T00:01:44.934Z,36.38
2022-08-17T00:04:21.331Z,35.30
2022-08-17T00:06:49.623Z,36.03
2022-08-17T00:09:18.952Z,35.46
2022-08-17T00:12:35.067Z,35.53
2022-08-17T00:14:36.255Z,36.40
2022-08-17T00:17:04.896Z,36.11
2022-08-17T00:19:33.067Z,36.33
2022-08-17T00:22:32.279Z,37.56
2022-08-17T00:24:50.799Z,36.49
2022-08-17T00:27:18.716Z,35.43
2022-08-17T00:29:46.074Z,36.08
2022-08-17T00:33:15.478Z,37.56
2022-08-17T00:35:05.118Z,37.60
2022-08-17T00:37:32.037Z,37.44
2022-08-17T00:39:59.037Z,38.39
2022-08-17T00:42:30.444Z,36.97
2022-08-17T00:44:58.434Z,37.73
2022-08-17T00:47:25.699Z,37.23
2022-08-17T00:49:52.827Z,37.78
2022-08-17T00:52:23.276Z,38.10
2022-08-17T00:54:52.542Z,37.64
2022-08-17T00:57:25.379Z,37.31
2022-08-17T01:00:03.092Z,37.12
2022-08-17T01:02:34.426Z,36.47
2022-08-17T01:05:09.358Z,36.67
2022-08-17T01:07:37.929Z,35.19
2022-08-17T01:10:07.293Z,35.16
2022-08-17T01:12:54.383Z,36.58
2022-08-17T01:15:21.331Z,34.96
2022-08-17T01:17:48.368Z,35.12
2022-08-17T01:20:17.034Z,35.51
2022-08-17T01:22:44.021Z,34.58
2022-08-17T01:25:12.797Z,35.09
2022-08-17T01:27:39.822Z,35.25
2022-08-17T01:30:57.161Z,35.22
2022-08-17T01:32:57.333Z,36.03
2022-08-17T01:35:24.617Z,36.02
2022-08-17T01:37:51.560Z,35.47
2022-08-17T01:40:23.873Z,35.51
2022-08-17T01:43:04.414Z,35.52
2022-08-17T01:45:34.043Z,36.48
2022-08-17T01:48:01.474Z,36.08
2022-08-17T01:50:31.472Z,35.32
2022-08-17T01:53:26.776Z,35.36
2022-08-17T01:55:57.513Z,35.42
2022-08-17T01:58:24.902Z,36.35
2022-08-17T02:01:00.939Z,36.16
2022-08-17T02:03:29.449Z,36.30
2022-08-17T02:05:57.209Z,35.97
2022-08-17T02:08:38.983Z,37.18
2022-08-17T02:11:14.757Z,35.77
2022-08-17T02:13:42.762Z,35.93
2022-08-17T02:16:09.751Z,35.81
2022-08-17T02:18:36.769Z,35.81
2022-08-17T02:21:04.573Z,36.19
2022-08-17T02:23:33.652Z,35.47
2022-08-17T02:26:01.047Z,35.50
2022-08-17T02:28:28.819Z,36.08
2022-08-17T02:31:01.205Z,36.21
2022-08-17T02:33:41.719Z,38.04
2022-08-17T02:36:09.796Z,37.84
2022-08-17T02:38:37.738Z,36.25
2022-08-17T02:41:05.283Z,36.58
2022-08-17T02:43:32.392Z,36.27
2022-08-17T02:45:59.748Z,35.92
2022-08-17T02:48:30.862Z,35.26
2022-08-17T02:50:59.202Z,35.90
2022-08-17T02:53:26.299Z,36.58
2022-08-17T02:55:53.667Z,36.97
2022-08-17T02:58:34.651Z,37.24
2022-08-17T03:01:05.363Z,37.06
2022-08-17T03:03:32.810Z,36.94
2022-08-17T03:05:59.715Z,36.92
2022-08-17T03:08:27.136Z,37.22
2022-08-17T03:10:54.095Z,36.74
2022-08-17T03:13:21.199Z,36.76
2022-08-17T03:15:48.577Z,37.27
2022-08-17T03:18:25.286Z,36.91
2022-08-17T03:20:58.426Z,36.99
2022-08-17T03:23:26.101Z,37.12
2022-08-17T03:25:55.558Z,37.13
2022-08-17T03:28:23.541Z,37.43
2022-08-17T03:30:51.417Z,37.88
2022-08-17T03:33:19.264Z,38.44
2022-08-17T03:35:46.376Z,38.67
2022-08-17T03:38:15.000Z,38.00
2022-08-17T03:40:57.713Z,38.58
2022-08-17T03:43:29.664Z,38.59
2022-08-17T03:46:33.899Z,38.33
2022-08-17T03:49:21.169Z,37.48
2022-08-17T03:52:06.608Z,37.73
2022-08-17T03:54:52.078Z,37.72
2022-08-17T03:57:19.451Z,37.84
2022-08-17T03:59:47.674Z,38.43
2022-08-17T04:02:19.572Z,38.90
2022-08-17T04:04:47.118Z,38.71
2022-08-17T04:07:14.049Z,36.70
2022-08-17T04:09:40.936Z,36.32
2022-08-17T04:12:08.005Z,36.66
2022-08-17T04:14:52.191Z,36.52
2022-08-17T04:17:26.653Z,36.18
2022-08-17T04:19:54.347Z,36.97
2022-08-17T04:22:31.024Z,35.85
2022-08-17T04:25:06.839Z,35.39
2022-08-17T04:27:33.795Z,34.27
2022-08-17T04:30:01.139Z,33.36
2022-08-17T04:33:03.452Z,32.67
2022-08-17T04:35:18.383Z,32.06
2022-08-17T04:37:45.713Z,31.06
2022-08-17T04:40:31.382Z,30.34
2022-08-17T04:43:07.533Z,30.07
2022-08-17T04:45:34.761Z,30.08
2022-08-17T04:48:01.733Z,30.20
2022-08-17T04:50:28.687Z,30.15
2022-08-17T04:52:55.856Z,30.66
2022-08-17T04:55:22.947Z,30.58
2022-08-17T04:57:49.924Z,29.22
2022-08-17T05:00:16.961Z,28.35
2022-08-17T05:02:49.956Z,27.56
2022-08-17T05:05:23.102Z,26.84
2022-08-17T05:07:54.629Z,26.05
2022-08-17T05:10:22.736Z,25.48
2022-08-17T05:12:58.835Z,24.73
2022-08-17T05:15:25.627Z,24.69
2022-08-17T05:17:52.359Z,24.82
2022-08-17T05:20:19.143Z,24.40
2022-08-17T05:22:51.413Z,25.30
2022-08-17T05:25:20.643Z,25.37
2022-08-17T05:27:51.938Z,24.79
2022-08-17T05:30:19.118Z,24.24
2022-08-17T05:32:53.210Z,23.76
2022-08-17T05:35:20.896Z,23.88
2022-08-17T05:37:48.176Z,23.20
2022-08-17T05:40:15.279Z,23.02
2022-08-17T05:42:42.393Z,22.70
2022-08-17T05:45:10.913Z,23.20
2022-08-17T05:47:39.623Z,23.79
2022-08-17T05:50:09.855Z,24.01
2022-08-17T05:52:58.485Z,24.46
2022-08-17T05:56:00.325Z,24.86
2022-08-17T05:58:33.324Z,24.88
2022-08-17T06:01:15.638Z,24.70
2022-08-17T06:04:01.177Z,24.35
2022-08-17T06:06:51.043Z,24.05
2022-08-17T06:09:40.187Z,24.77
2022-08-17T06:12:26.488Z,24.47
2022-08-17T06:15:26.501Z,25.56
2022-08-17T06:17:56.625Z,25.16
2022-08-17T06:20:24.932Z,25.26
2022-08-17T06:22:56.309Z,24.90
2022-08-17T06:25:23.171Z,24.92
2022-08-17T06:27:54.410Z,25.47
2022-08-17T06:30:25.048Z,25.70
2022-08-17T06:32:53.465Z,24.84
2022-08-17T06:35:31.836Z,24.75
2022-08-17T06:38:07.251Z,23.86
2022-08-17T06:40:52.466Z,23.81
2022-08-17T06:43:54.143Z,23.76
2022-08-17T06:46:23.565Z,24.01
2022-08-17T06:49:09.779Z,24.91
2022-08-17T06:52:06.783Z,24.81
2022-08-17T06:54:39.451Z,25.38
2022-08-17T06:57:20.233Z,23.92
2022-08-17T06:59:56.790Z,23.92
2022-08-17T07:02:52.631Z,23.17
2022-08-17T07:05:25.160Z,24.09
2022-08-17T07:08:03.802Z,23.44
2022-08-17T07:10:43.692Z,22.06
2022-08-17T07:13:25.817Z,23.10
2022-08-17T07:15:57.213Z,21.86
2022-08-17T07:18:26.720Z,21.44
2022-08-17T07:20:58.433Z,22.38
2022-08-17T07:23:47.067Z,22.99
2022-08-17T07:26:13.980Z,23.71
2022-08-17T07:28:42.580Z,23.23
2022-08-17T07:31:13.473Z,23.55
2022-08-17T07:33:41.208Z,22.26
2022-08-17T07:36:29.628Z,22.33
2022-08-17T07:38:58.506Z,22.27
2022-08-17T07:41:25.588Z,22.36
2022-08-17T07:44:14.697Z,22.43
2022-08-17T07:47:09.524Z,22.28
2022-08-17T07:49:40.936Z,22.81
2022-08-17T07:52:48.227Z,22.50
2022-08-17T07:54:59.487Z,22.80
2022-08-17T07:57:31.131Z,21.91
2022-08-17T08:00:03.064Z,22.06
2022-08-17T08:02:40.425Z,20.62
2022-08-17T08:05:48.846Z,21.21
2022-08-17T08:08:25.461Z,21.31
2022-08-17T08:11:11.018Z,21.49
2022-08-17T08:13:45.194Z,23.02
2022-08-17T08:16:20.068Z,23.29
2022-08-17T08:18:55.662Z,21.03
2022-08-17T08:22:00.903Z,21.32
2022-08-17T08:24:50.735Z,20.61
2022-08-17T08:27:22.713Z,20.14
2022-08-17T08:29:56.645Z,20.01
2022-08-17T08:32:23.490Z,20.46
2022-08-17T08:35:20.490Z,18.99
2022-08-17T08:37:50.170Z,19.44
2022-08-17T08:40:41.845Z,20.13
2022-08-17T08:43:14.525Z,19.09
2022-08-17T08:45:58.119Z,19.58
2022-08-17T08:48:57.834Z,20.04
2022-08-17T08:51:25.466Z,20.06
2022-08-17T08:54:53.061Z,19.48
2022-08-17T08:57:33.514Z,19.23
2022-08-17T09:00:15.692Z,20.21
2022-08-17T09:02:54.733Z,19.45
2022-08-17T09:05:31.104Z,19.58
2022-08-17T09:08:01.906Z,20.63
2022-08-17T09:10:35.426Z,20.03
2022-08-17T09:13:39.200Z,19.91
2022-08-17T09:16:20.523Z,19.31
2022-08-17T09:19:03.478Z,19.31
2022-08-17T09:21:48.083Z,20.04
2022-08-17T09:24:40.327Z,19.46
2022-08-17T09:27:19.208Z,19.04
2022-08-17T09:29:49.950Z,19.52
2022-08-17T09:32:21.907Z,19.19
2022-08-17T09:34:54.927Z,18.60
2022-08-17T09:37:34.311Z,19.82
2022-08-17T09:40:09.853Z,19.30
2022-08-17T09:42:49.370Z,18.24
2022-08-17T09:45:27.377Z,18.59
2022-08-17T09:48:49.031Z,17.58
2022-08-17T09:51:18.777Z,18.23
2022-08-17T09:53:45.774Z,17.19
2022-08-17T09:56:18.422Z,17.55
2022-08-17T09:59:03.584Z,17.68
2022-08-17T10:01:38.189Z,18.29
2022-08-17T10:04:20.361Z,18.01
2022-08-17T10:07:02.682Z,17.94
2022-08-17T10:10:01.340Z,17.73
2022-08-17T10:12:30.222Z,18.75
2022-08-17T10:15:25.056Z,19.86
2022-08-17T10:18:33.159Z,18.92
2022-08-17T10:21:31.363Z,19.53
2022-08-17T10:24:29.203Z,18.05
2022-08-17T10:26:58.506Z,17.44
2022-08-17T10:29:48.409Z,16.73
2022-08-17T10:32:48.754Z,16.53
2022-08-17T10:35:31.173Z,16.90
2022-08-17T10:38:24.593Z,15.93
2022-08-17T10:40:59.393Z,16.19
2022-08-17T10:43:38.639Z,16.63
2022-08-17T10:46:31.176Z,16.85
2022-08-17T10:49:16.923Z,16.15
2022-08-17T10:51:55.591Z,16.14
2022-08-17T10:54:25.209Z,16.06
2022-08-17T10:56:54.274Z,15.92
2022-08-17T10:59:36.306Z,16.30
2022-08-17T11:02:23.295Z,17.88
2022-08-17T11:05:18.032Z,19.82
2022-08-17T11:08:13.037Z,18.53
2022-08-17T11:10:51.913Z,19.10
2022-08-17T11:13:48.617Z,19.06
2022-08-17T11:16:49.966Z,18.92
2022-08-17T11:19:47.302Z,19.01
2022-08-17T11:22:58.188Z,17.91
2022-08-17T11:25:40.582Z,17.02
2022-08-17T11:28:19.386Z,17.17
2022-08-17T11:30:51.368Z,17.77
2022-08-17T11:33:30.415Z,17.60
2022-08-17T11:36:17.738Z,18.35
2022-08-17T11:39:01.860Z,18.65
2022-08-17T11:41:57.879Z,17.75
2022-08-17T11:44:42.409Z,17.20
2022-08-17T11:47:56.984Z,16.97
2022-08-17T11:51:13.196Z,17.80
2022-08-17T11:53:40.057Z,17.81
2022-08-17T11:56:09.731Z,17.37
2022-08-17T11:58:38.779Z,18.14
2022-08-17T12:01:08.767Z,19.15
2022-08-17T12:03:35.606Z,19.00
2022-08-17T12:06:19.713Z,18.30
2022-08-17T12:08:56.224Z,18.85
2022-08-17T12:11:58.616Z,18.93
2022-08-17T12:15:08.401Z,19.11
2022-08-17T12:17:40.938Z,18.12
2022-08-17T12:20:23.271Z,18.06
2022-08-17T12:23:20.043Z,17.83
2022-08-17T12:25:51.921Z,18.35
2022-08-17T12:28:26.327Z,17.53
2022-08-17T12:30:53.554Z,17.24
2022-08-17T12:33:28.026Z,18.97
2022-08-17T12:35:59.707Z,20.49
2022-08-17T12:38:33.109Z,20.68
2022-08-17T12:41:21.188Z,20.89
2022-08-17T12:44:02.472Z,20.97
2022-08-17T12:46:55.621Z,20.67
2022-08-17T12:49:26.654Z,20.86
2022-08-17T12:52:08.287Z,20.34
2022-08-17T12:54:47.319Z,20.51
2022-08-17T12:57:22.658Z,20.48
2022-08-17T12:59:54.105Z,20.34
2022-08-17T13:02:28.491Z,20.31
2022-08-17T13:04:57.632Z,19.45
2022-08-17T13:07:36.145Z,18.85
2022-08-17T13:10:03.949Z,19.25
2022-08-17T13:12:35.187Z,19.63
2022-08-17T13:15:02.144Z,18.88
2022-08-17T13:17:32.875Z,19.67
2022-08-17T13:19:59.987Z,19.19
2022-08-17T13:22:28.680Z,19.40
2022-08-17T13:24:58.894Z,19.94
2022-08-17T13:27:28.133Z,20.33
2022-08-17T13:29:59.711Z,20.45
2022-08-17T13:32:44.077Z,20.09
2022-08-17T13:35:40.080Z,20.07
2022-08-17T13:38:14.082Z,20.81
2022-08-17T13:40:58.981Z,20.34
2022-08-17T13:43:44.647Z,20.92
2022-08-17T13:46:32.602Z,21.12
2022-08-17T13:49:10.006Z,21.33
2022-08-17T13:51:43.435Z,20.98
2022-08-17T13:54:30.482Z,20.29
2022-08-17T13:57:05.995Z,20.51
2022-08-17T13:59:54.992Z,20.62
2022-08-17T14:02:26.624Z,20.37
2022-08-17T14:04:59.170Z,20.37
2022-08-17T14:07:36.063Z,20.31
2022-08-17T14:10:06.632Z,20.39
2022-08-17T14:12:34.999Z,19.99
2022-08-17T14:15:02.081Z,20.51
2022-08-17T14:17:30.496Z,21.25
2022-08-17T14:19:59.566Z,20.91
2022-08-17T14:22:31.979Z,20.07
2022-08-17T14:25:01.759Z,19.97
2022-08-17T14:27:32.020Z,20.25
2022-08-17T14:29:59.220Z,20.84
2022-08-17T14:32:29.799Z,20.83
2022-08-17T14:34:57.873Z,20.97
2022-08-17T14:37:28.100Z,21.26
2022-08-17T14:39:58.037Z,22.42
2022-08-17T14:42:27.286Z,21.45
2022-08-17T14:44:58.956Z,21.15
2022-08-17T14:47:27.775Z,20.74
2022-08-17T14:49:54.692Z,21.44
2022-08-17T14:52:22.234Z,21.53
2022-08-17T14:54:51.618Z,21.34
2022-08-17T14:57:33.463Z,21.12
2022-08-17T15:00:02.714Z,21.37
2022-08-17T15:02:31.088Z,21.42
2022-08-17T15:05:04.396Z,21.43
2022-08-17T15:07:31.859Z,21.88
2022-08-17T15:10:01.398Z,22.30
2022-08-17T15:12:33.196Z,21.95
2022-08-17T15:15:01.598Z,21.74
2022-08-17T15:17:44.643Z,20.85
2022-08-17T15:20:18.568Z,22.02
2022-08-17T15:22:47.265Z,21.59
2022-08-17T15:25:14.453Z,21.12
2022-08-17T15:27:42.091Z,20.39
2022-08-17T15:30:10.244Z,20.47
2022-08-17T15:32:39.825Z,20.33
2022-08-17T15:35:09.036Z,20.96
2022-08-17T15:37:36.503Z,21.67
2022-08-17T15:40:05.483Z,21.20
2022-08-17T15:42:33.138Z,20.80
2022-08-17T15:45:06.346Z,21.84
2022-08-17T15:47:33.305Z,21.79
2022-08-17T15:50:00.589Z,22.33
2022-08-17T15:52:29.938Z,21.91
2022-08-17T15:54:59.730Z,22.04
2022-08-17T15:57:27.804Z,21.93
2022-08-17T15:59:58.617Z,21.75
2022-08-17T16:03:14.083Z,21.88
2022-08-17T16:05:24.240Z,21.25
2022-08-17T16:07:52.701Z,21.70
2022-08-17T16:10:20.041Z,20.92
2022-08-17T16:12:48.702Z,20.76
2022-08-17T16:15:16.440Z,21.05
2022-08-17T16:17:43.533Z,20.89
2022-08-17T16:20:20.011Z,21.11
2022-08-17T16:22:49.279Z,21.20
2022-08-17T16:25:40.290Z,21.25
2022-08-17T16:28:12.677Z,21.21
2022-08-17T16:30:39.805Z,22.09
2022-08-17T16:33:07.105Z,22.44
2022-08-17T16:35:34.051Z,21.93
2022-08-17T16:38:01.140Z,21.46
2022-08-17T16:40:29.549Z,21.75
2022-08-17T16:42:58.268Z,22.06
2022-08-17T16:45:27.882Z,21.83
2022-08-17T16:47:58.089Z,21.86
2022-08-17T16:50:25.285Z,21.69
2022-08-17T16:52:52.459Z,22.00
2022-08-17T16:55:21.779Z,21.56
2022-08-17T16:57:50.259Z,20.75
2022-08-17T17:00:18.450Z,20.31
2022-08-17T17:02:47.975Z,20.56
2022-08-17T17:05:36.126Z,21.01
2022-08-17T17:08:09.736Z,21.25
2022-08-17T17:10:41.036Z,21.32
2022-08-17T17:13:47.933Z,21.55
2022-08-17T17:16:27.084Z,21.43
2022-08-17T17:19:10.687Z,21.65
2022-08-17T17:22:36.394Z,21.93
2022-08-17T17:25:21.804Z,21.96
2022-08-17T17:27:54.581Z,22.07
2022-08-17T17:30:27.795Z,21.48
2022-08-17T17:33:13.498Z,21.27
2022-08-17T17:35:59.442Z,21.19
2022-08-17T17:38:39.367Z,21.62
2022-08-17T17:41:12.150Z,22.41
2022-08-17T17:43:40.283Z,22.72
2022-08-17T17:46:29.089Z,22.85
2022-08-17T17:48:57.726Z,22.87
2022-08-17T17:51:54.734Z,21.92
2022-08-17T17:54:42.419Z,22.62
2022-08-17T17:57:45.176Z,23.45
2022-08-17T18:00:19.633Z,22.74
2022-08-17T18:03:04.895Z,22.06
2022-08-17T18:05:44.523Z,22.55
2022-08-17T18:08:53.176Z,22.27
2022-08-17T18:11:40.074Z,22.41
2022-08-17T18:14:17.397Z,22.91
2022-08-17T18:16:46.589Z,23.49
2022-08-17T18:19:21.215Z,22.45
2022-08-17T18:21:52.525Z,23.38
2022-08-17T18:24:30.847Z,23.20
2022-08-17T18:26:59.570Z,23.47
2022-08-17T18:29:26.505Z,24.21
2022-08-17T18:32:32.108Z,24.45
2022-08-17T18:35:11.236Z,23.69
2022-08-17T18:37:42.872Z,23.50
2022-08-17T18:40:19.294Z,24.09
2022-08-17T18:42:51.814Z,25.08
2022-08-17T18:45:49.082Z,25.36
2022-08-17T18:48:21.578Z,25.02
2022-08-17T18:50:51.484Z,24.76
2022-08-17T18:53:26.654Z,24.81
2022-08-17T18:56:27.172Z,24.80
2022-08-17T18:59:04.682Z,24.97
2022-08-17T19:02:10.251Z,24.86
2022-08-17T19:05:08.710Z,25.08
2022-08-17T19:07:42.016Z,25.55
2022-08-17T19:10:17.164Z,25.66
2022-08-17T19:13:12.671Z,26.27
2022-08-17T19:16:14.136Z,26.60
2022-08-17T19:18:47.624Z,26.57
2022-08-17T19:21:27.735Z,26.91
2022-08-17T19:24:19.725Z,26.53
2022-08-17T19:27:18.297Z,26.78
2022-08-17T19:29:51.901Z,27.02
2022-08-17T19:32:23.370Z,27.26
2022-08-17T19:34:50.549Z,27.33
2022-08-17T19:37:26.886Z,27.15
2022-08-17T19:40:08.947Z,27.50
2022-08-17T19:42:47.854Z,27.13
2022-08-17T19:45:35.494Z,27.24
2022-08-17T19:48:36.659Z,27.73
2022-08-17T19:51:50.785Z,27.49
2022-08-17T19:54:29.149Z,28.39
2022-08-17T19:57:05.322Z,28.57
2022-08-17T19:59:49.133Z,28.46
2022-08-17T20:02:22.064Z,27.77
2022-08-17T20:04:50.698Z,28.46
2022-08-17T20:07:24.042Z,28.63
2022-08-17T20:10:04.285Z,29.09
2022-08-17T20:12:38.549Z,29.08
2022-08-17T20:15:10.979Z,28.74
2022-08-17T20:17:42.031Z,29.40
2022-08-17T20:20:19.574Z,29.65
2022-08-17T20:23:18.967Z,29.89
2022-08-17T20:26:23.124Z,31.04
2022-08-17T20:29:14.820Z,31.24
2022-08-17T20:31:55.285Z,30.82
2022-08-17T20:34:31.037Z,30.52
2022-08-17T20:37:07.298Z,30.61
2022-08-17T20:39:40.820Z,30.62
2022-08-17T20:42:09.941Z,30.89
2022-08-17T20:44:40.095Z,31.07
2022-08-17T20:48:00.772Z,32.22
2022-08-17T20:50:43.630Z,31.23
2022-08-17T20:53:14.993Z,32.11
2022-08-17T20:55:51.659Z,31.81
2022-08-17T20:58:31.086Z,32.52
2022-08-17T21:00:59.036Z,33.43
2022-08-17T21:03:43.149Z,34.00
2022-08-17T21:06:18.366Z,34.67
2022-08-17T21:09:19.599Z,34.44
2022-08-17T21:12:04.012Z,33.68
2022-08-17T21:14:38.181Z,34.22
2022-08-17T21:17:22.401Z,33.93
2022-08-17T21:20:11.975Z,34.29
2022-08-17T21:23:10.408Z,33.82
2022-08-17T21:25:40.225Z,34.33
2022-08-17T21:29:00.338Z,34.76
2022-08-17T21:31:31.242Z,34.73
2022-08-17T21:34:33.028Z,34.52
2022-08-17T21:37:29.737Z,34.21
2022-08-17T21:40:01.371Z,34.65
2022-08-17T21:42:32.323Z,34.55
2022-08-17T21:45:12.539Z,33.85
2022-08-17T21:47:45.391Z,33.08
2022-08-17T21:50:17.369Z,33.41
2022-08-17T21:52:44.334Z,33.50
2022-08-17T21:55:21.661Z,34.14
2022-08-17T21:57:55.422Z,33.77
2022-08-17T22:00:36.982Z,33.67
2022-08-17T22:03:07.316Z,33.07
2022-08-17T22:05:37.202Z,32.83
2022-08-17T22:08:16.531Z,33.40
2022-08-17T22:10:45.556Z,34.15
2022-08-17T22:13:20.988Z,32.99
2022-08-17T22:16:27.931Z,33.64
2022-08-17T22:18:53.667Z,33.62
2022-08-17T22:21:22.742Z,33.29
2022-08-17T22:24:04.882Z,33.21
2022-08-17T22:26:59.331Z,33.29
2022-08-17T22:29:53.352Z,33.46
2022-08-17T22:32:38.678Z,33.79
2022-08-17T22:35:34.861Z,33.46
2022-08-17T22:38:20.220Z,34.03
2022-08-17T22:40:51.974Z,33.84
2022-08-17T22:43:25.970Z,33.67
2022-08-17T22:45:55.834Z,34.95
2022-08-17T22:48:27.108Z,33.69
2022-08-17T22:51:12.774Z,33.21
2022-08-17T22:54:08.056Z,33.46
2022-08-17T22:56:53.941Z,34.16
2022-08-17T22:59:43.784Z,35.36
2022-08-17T23:02:55.208Z,35.09
2022-08-17T23:05:24.207Z,35.42
2022-08-17T23:07:52.950Z,35.20
2022-08-17T23:10:20.002Z,35.22
2022-08-17T23:12:47.027Z,35.42
2022-08-17T23:15:16.720Z,36.13
2022-08-17T23:17:47.148Z,35.89
2022-08-17T23:20:15.668Z,36.22
2022-08-17T23:22:51.822Z,35.56
2022-08-17T23:25:25.871Z,36.84
2022-08-17T23:27:52.951Z,36.71
2022-08-17T23:30:20.356Z,34.78
2022-08-17T23:32:53.922Z,34.68
2022-08-17T23:35:39.966Z,35.05
2022-08-17T23:38:08.985Z,35.14
2022-08-17T23:40:35.918Z,36.14
2022-08-17T23:43:11.433Z,35.66
2022-08-17T23:45:57.675Z,36.18
2022-08-17T23:48:36.089Z,36.01
2022-08-17T23:51:24.424Z,36.52
2022-08-17T23:53:52.011Z,36.97
2022-08-17T23:56:24.775Z,37.67
2022-08-17T23:58:53.160Z,37.56
